Latest Weather Observations for Thredbo Top Station

IDN60801

Issued at 9:02 am EDT Monday 5 December 2016 (issued every 30 minutes, with the page automatically refreshed every 10 minutes)

About weather observations | Map of weather stations | Latest weather observations for NSW | Other Formats
Station Details ID: 071032 Name: THREDBO AWS Lat: -36.49 Lon: 148.29 Height: 1957.0 m
Data from the previous 72 hours. | See also: Recent months at Thredbo Top Station
Date/Time
EDT
Temp
°C
App
Temp
°C
Dew
Point
°C
Rel
Hum
%
Delta-T
°C
Wind Press
QNH
hPa
Press
MSL
hPa
Rain since
9am
mm
Dir  Spd
km/h
Gust
km/h
Spd
kts
Gust
kts
05/09:00am 14.3 6.5 9.9 75 2.5 NW 41 59 22 32 1017.7 1010.6 4.8
05/08:41am 14.5 7.3 10.5 77 2.3 NW 39 57 21 31 1017.6 1010.5 4.8
05/08:30am 13.8 6.0 9.8 77 2.3 NW 41 57 22 31 1017.3 1010.3 4.8
05/08:00am 12.9 5.4 9.5 80 1.9 NW 39 61 21 33 1017.7 1010.6 4.8
05/07:35am 12.8 4.6 9.6 81 1.8 NW 43 61 23 33 1017.0 1009.9 4.8
05/07:30am 12.7 3.5 9.5 81 1.8 NW 48 61 26 33 1016.7 1009.6 4.8
05/07:00am 12.7 3.5 9.5 81 1.8 NNW 48 61 26 33 1016.5 1009.4 4.8
05/06:42am 12.7 1.9 9.3 80 1.9 NNW 56 74 30 40 1016.1 1009.0 4.8
05/06:30am 12.8 1.1 9.3 79 2.0 NNW 61 74 33 40 1015.6 1008.5 4.8
05/06:00am 12.8 1.5 9.3 79 2.0 NNW 59 76 32 41 1015.3 1008.1 4.8
05/05:44am 12.9 1.2 9.4 79 2.0 NNW 61 82 33 44 1015.1 1008.0 4.8
05/05:30am 12.7 1.0 9.3 80 1.9 NNW 61 78 33 42 1015.1 1008.0 4.8
05/05:13am 12.7 2.7 9.5 81 1.8 NNW 52 70 28 38 1015.0 1007.9 4.8
05/05:00am 11.8 3.6 9.7 87 1.2 NW 43 59 23 32 1016.2 1009.1 4.8
05/04:39am 12.3 3.2 9.9 85 1.4 NNW 48 67 26 36 1016.2 1009.1 4.8
05/04:30am 12.3 2.4 9.9 85 1.4 NNW 52 65 28 35 1015.4 1008.2 4.8
05/04:00am 12.1 2.7 10.3 89 1.0 NNW 50 69 27 37 1015.9 1008.7 4.8
05/03:48am 11.3 3.7 10.5 95 0.5 NNW 41 59 22 32 1016.6 1009.5 4.8
05/03:30am 11.2 2.6 10.3 94 0.5 NNW 46 63 25 34 1016.4 1009.2 4.8
05/03:00am 11.3 5.3 10.0 92 0.7 NNW 32 52 17 28 1017.2 1010.1 4.8
05/02:58am 11.4 6.2 10.1 92 0.7 NNW 28 52 15 28 1017.1 1010.0 4.8
05/02:30am 10.2 6.7 10.1 99 0.1 WSW 19 30 10 16 1019.0 1012.0 3.6
05/02:00am 13.0 6.3 9.6 80 1.9 NNW 35 48 19 26 1017.8 1010.8 2.6
05/01:30am 12.8 4.5 9.3 79 2.0 N 43 56 23 30 1017.2 1010.1 2.4
05/01:08am 13.2 4.9 9.3 77 2.2 NNW 43 63 23 34 1017.0 1009.9 2.2
05/01:00am 12.7 5.2 9.3 80 1.9 NNW 39 56 21 30 1017.4 1010.4 2.2
05/12:32am 13.3 4.4 9.2 76 2.3 NNW 46 67 25 36 1017.6 1010.5 1.8
05/12:30am 13.0 4.5 9.1 77 2.2 NNW 44 61 24 33 1018.2 1011.1 1.8
05/12:22am 13.1 5.8 8.8 75 2.4 NNW 37 56 20 30 1017.9 1010.9 1.8
05/12:00am 13.1 5.3 8.4 73 2.6 NNW 39 54 21 29 1018.3 1011.3 1.8
 
Date/Time
EDT
Temp
°C
App
Temp
°C
Dew
Point
°C
Rel
Hum
%
Delta-T
°C
Wind Press
QNH
hPa
Press
MSL
hPa
Rain since
9am
mm
Dir  Spd
km/h
Gust
km/h
Spd
kts
Gust
kts
04/11:30pm 13.4 6.4 8.3 71 2.8 N 35 48 19 26 1018.4 1011.4 1.8
04/11:00pm 12.2 7.7 8.7 79 1.9 N 22 43 12 23 1018.9 1011.9 1.8
04/10:30pm 11.7 7.8 8.6 81 1.7 NNE 19 24 10 13 1019.5 1012.5 1.8
04/10:00pm 11.1 7.7 9.0 87 1.2 N 17 22 9 12 1019.3 1012.3 1.8
04/09:30pm 10.7 8.5 9.3 91 0.8 NNW 11 17 6 9 1019.4 1012.4 1.8
04/09:00pm 11.0 6.3 9.4 90 0.9 NW 24 32 13 17 1019.1 1012.1 1.8
04/08:30pm 11.1 5.7 9.5 90 0.9 NW 28 44 15 24 1020.1 1013.1 1.4
04/08:00pm 12.4 5.3 8.1 75 2.4 NNW 35 43 19 23 1019.7 1012.8 0.2
04/07:30pm 13.7 4.8 7.5 66 3.4 NNW 44 57 24 31 1019.5 1012.5 0.0
04/07:00pm 14.3 5.3 7.4 63 3.8 NNW 44 57 24 31 1019.0 1012.0 0.0
04/06:30pm 14.9 5.6 7.5 61 4.1 NNW 46 56 25 30 1018.9 1011.9 0.0
04/06:00pm 13.9 5.4 8.5 70 3.0 NNW 43 54 23 29 1019.4 1012.4 0.0
04/05:30pm 15.3 5.3 6.1 54 4.9 NNW 48 61 26 33 1019.0 1012.0 0.0
04/05:00pm 15.9 7.4 5.2 49 5.7 NNW 39 54 21 29 1019.7 1012.8 0.0
04/04:30pm 15.5 7.4 6.8 56 4.7 NNW 39 52 21 28 1020.0 1013.0 0.0
04/04:08pm 15.2 6.6 6.7 57 4.6 NNW 41 59 22 32 1019.9 1012.9 0.0
04/04:00pm 15.6 8.2 6.6 55 4.9 NNW 35 52 19 28 1020.5 1013.5 0.0
04/03:53pm 15.3 7.4 6.3 55 4.8 NNW 37 56 20 30 1020.7 1013.8 0.0
04/03:30pm 15.5 8.0 4.6 48 5.7 NNW 33 50 18 27 1020.8 1013.9 0.0
04/03:06pm 15.9 7.2 6.1 52 5.3 NNW 41 59 22 32 1021.2 1014.3 0.0
04/03:00pm 15.6 5.9 5.8 52 5.2 NNW 46 59 25 32 1021.0 1014.0 0.0
04/02:30pm 15.8 7.8 3.9 45 6.1 NNW 35 48 19 26 1021.3 1014.4 0.0
04/02:20pm 16.3 8.7 3.0 41 6.8 NNW 32 44 17 24 1021.4 1014.5 0.0
04/02:00pm 18.1 12.8 3.2 37 7.7 NW 20 35 11 19 1021.7 1014.8 0.0
04/01:30pm 16.4 9.4 2.1 38 7.1 NNW 28 39 15 21 1021.7 1014.8 0.0
04/01:00pm 16.7 9.6 3.4 41 6.8 NNW 30 41 16 22 1021.8 1014.9 0.0
04/12:30pm 15.8 8.3 4.2 46 6.0 NNW 33 48 18 26 1021.8 1014.9 0.0
04/12:00pm 15.9 8.4 3.4 43 6.4 NNW 32 41 17 22 1022.0 1015.2 0.0
04/11:30am 17.0 9.6 5.0 45 6.4 NNW 33 46 18 25 1022.4 1015.5 0.0
04/11:00am 15.8 7.6 2.6 41 6.6 NNW 35 48 19 26 1022.3 1015.4 0.0
04/10:30am 16.6 9.2 4.0 43 6.5 NW 32 43 17 23 1022.7 1015.8 0.0
04/10:00am 15.5 8.0 3.3 44 6.2 NW 32 41 17 22 1022.7 1015.8 0.0
04/09:30am 15.0 7.5 3.5 46 5.8 WNW 32 44 17 24 1022.7 1015.8 0.0
04/09:00am 14.6 7.5 3.4 47 5.7 NW 30 44 16 24 1022.7 1015.8 0.0
04/08:30am 14.6 7.9 3.7 48 5.5 WNW 28 43 15 23 1022.4 1015.5 0.0
04/08:00am 13.9 7.7 2.2 45 5.7 WNW 24 35 13 19 1022.2 1015.3 0.0
04/07:30am 13.0 6.3 1.7 46 5.5 WNW 26 39 14 21 1022.2 1015.3 0.0
04/07:00am 12.2 5.1 1.5 48 5.1 WNW 28 41 15 22 1021.7 1014.8 0.0
04/06:30am 11.8 4.7 1.2 48 5.0 WNW 28 37 15 20 1021.6 1014.7 0.0
04/06:00am 10.6 2.9 0.1 48 4.8 WNW 30 41 16 22 1021.1 1014.2 0.0
04/05:30am 10.3 2.1 -1.1 45 5.1 WNW 32 41 17 22 1020.7 1013.8 0.0
04/05:00am 9.6 1.6 -2.3 43 5.1 WNW 30 39 16 21 1020.6 1013.7 0.0
04/04:30am 9.4 1.4 -2.2 44 5.0 WNW 30 41 16 22 1020.6 1013.7 0.0
04/04:00am 9.8 1.1 -3.8 38 5.6 WNW 33 43 18 23 1020.6 1013.7 0.0
04/03:30am 9.6 0.7 -5.1 35 5.9 WNW 33 43 18 23 1020.6 1013.7 0.0
04/03:00am 9.6 1.3 -5.1 35 5.9 WNW 30 37 16 20 1020.6 1013.7 0.0
04/02:30am 10.4 1.1 -5.6 32 6.4 WNW 35 44 19 24 1020.5 1013.5 0.0
04/02:00am 10.0 1.2 -6.3 31 6.4 WNW 32 41 17 22 1021.1 1014.2 0.0
04/01:30am 9.9 0.5 -6.8 30 6.5 NW 35 44 19 24 1021.2 1014.3 0.0
04/01:00am 9.1 0.3 -5.9 34 5.9 NW 32 41 17 22 1021.4 1014.5 0.0
04/12:30am 9.7 -0.1 -7.0 30 6.5 NW 37 50 20 27 1021.6 1014.7 0.0
04/12:00am 9.7 -0.6 -3.9 38 5.6 NW 41 46 22 25 1021.3 1014.4 0.0
 
Date/Time
EDT
Temp
°C
App
Temp
°C
Dew
Point
°C
Rel
Hum
%
Delta-T
°C
Wind Press
QNH
hPa
Press
MSL
hPa
Rain since
9am
mm
Dir  Spd
km/h
Gust
km/h
Spd
kts
Gust
kts
03/11:30pm 10.2 -0.4 -3.1 39 5.6 NW 43 52 23 28 1021.2 1014.3 0.0
03/11:00pm 10.1 0.3 -2.9 40 5.5 NW 39 48 21 26 1021.2 1014.3 0.0
03/10:30pm 9.7 0.8 -1.9 44 5.0 NW 35 43 19 23 1021.7 1014.8 0.0
03/10:00pm 9.9 1.4 -1.5 45 5.0 NW 33 39 18 21 1021.6 1014.7 0.0
03/09:30pm 9.7 1.9 -0.8 48 4.7 NW 30 35 16 19 1021.7 1014.8 0.0
03/09:00pm 9.4 2.8 -0.5 50 4.4 NW 24 32 13 17 1021.9 1015.0 0.0
03/08:30pm 10.3 2.9 -0.8 46 5.0 NW 28 35 15 19 1021.4 1014.5 0.0
03/08:00pm 11.4 3.1 -2.0 39 5.9 NW 32 43 17 23 1020.7 1013.8 0.0
03/07:30pm 11.5 3.4 0.0 45 5.3 NW 32 43 17 23 1020.6 1013.7 0.0
03/07:00pm 12.3 2.9 -0.2 42 5.8 NNW 39 50 21 27 1020.5 1013.5 0.0
03/06:30pm 13.0 4.7 -1.7 36 6.6 NW 32 43 17 23 1020.7 1013.8 0.0
03/06:08pm 13.4 5.4 -2.1 34 6.9 NW 30 48 16 26 1020.4 1013.4 0.0
03/06:00pm 13.3 5.1 -0.7 38 6.4 NW 32 46 17 25 1020.4 1013.4 0.0
03/05:30pm 14.1 6.5 0.7 40 6.4 NW 30 43 16 23 1020.5 1013.5 0.0
03/05:01pm 13.7 5.6 -0.3 38 6.5 NW 32 50 17 27 1020.0 1013.0 0.0
03/05:00pm 13.8 6.1 -0.3 38 6.6 NW 30 46 16 25 1020.2 1013.3 0.0
03/04:55pm 14.4 7.4 1.7 42 6.2 WNW 28 46 15 25 1020.6 1013.7 0.0
03/04:30pm 14.3 6.8 0.9 40 6.4 NW 30 44 16 24 1020.4 1013.4 0.0
03/04:05pm 13.5 5.0 0.9 42 6.0 NW 35 56 19 30 1020.0 1013.0 0.0
03/04:00pm 13.7 5.7 1.7 44 5.8 NW 33 48 18 26 1020.0 1013.0 0.0
03/03:47pm 14.6 6.4 2.5 44 6.0 NW 35 54 19 29 1020.5 1013.5 0.0
03/03:30pm 13.6 4.7 2.8 48 5.4 NW 39 54 21 29 1020.0 1013.0 0.0
03/03:13pm 13.6 4.8 3.7 51 5.0 NW 39 57 21 31 1020.0 1013.0 0.0
03/03:00pm 13.7 5.8 4.3 53 4.8 NW 35 52 19 28 1020.1 1013.1 0.0
03/02:30pm 14.2 6.8 4.8 53 4.9 NW 33 48 18 26 1020.4 1013.4 0.0
03/02:00pm 14.5 7.1 4.8 52 5.0 NW 33 52 18 28 1020.4 1013.4 0.0
03/01:30pm 13.7 5.2 5.1 56 4.5 NW 39 61 21 33 1019.9 1012.9 0.0
03/01:00pm 13.8 3.8 4.4 53 4.8 NW 46 67 25 36 1019.9 1012.9 0.0
03/12:30pm 13.6 3.1 3.9 52 4.9 NW 48 76 26 41 1019.7 1012.8 0.0
03/12:05pm 12.2 0.7 4.2 58 4.0 NNW 54 74 29 40 1019.0 1012.0 0.0
03/12:00pm 12.1 0.2 4.3 59 3.9 NNW 56 70 30 38 1019.1 1012.1 0.0
03/11:30am 11.6 -1.1 3.1 56 4.2 NNW 59 72 32 39 1018.4 1011.4 0.0
03/11:18am 12.1 0.1 3.6 56 4.2 NNW 56 74 30 40 1018.8 1011.8 0.0
03/11:00am 12.0 -0.7 3.3 55 4.3 NNW 59 74 32 40 1018.8 1011.8 0.0
03/10:33am 11.4 0.7 2.7 55 4.2 NW 48 67 26 36 1018.3 1011.3 0.0
03/10:30am 11.6 1.3 2.6 54 4.4 NW 46 63 25 34 1018.5 1011.5 0.0
03/10:00am 11.4 2.1 2.9 56 4.2 NW 41 59 22 32 1019.0 1012.0 0.0
03/09:30am 12.1 2.3 3.3 55 4.4 NW 44 65 24 35 1019.3 1012.3 0.0
03/09:00am 11.4 1.7 2.7 55 4.2 NW 43 63 23 34 1019.1 1012.1 0.0
03/08:40am 10.7 0.9 2.0 55 4.2 NW 43 63 23 34 1018.9 1011.9 0.0
03/08:30am 10.7 1.2 2.0 55 4.2 NW 41 57 22 31 1018.8 1011.8 0.0
03/08:03am 10.3 1.6 1.7 55 4.1 NW 37 56 20 30 1018.7 1011.6 0.0
03/08:00am 10.5 1.4 2.1 56 4.0 NW 39 56 21 30 1018.8 1011.8 0.0
03/07:44am 9.9 0.4 1.8 57 3.8 NW 41 59 22 32 1018.7 1011.6 0.0
03/07:30am 9.9 0.8 2.0 58 3.7 NW 39 54 21 29 1018.7 1011.6 0.0
03/07:19am 9.4 0.7 1.8 59 3.6 NW 37 56 20 30 1018.4 1011.4 0.0
03/07:00am 9.8 0.8 2.2 59 3.6 NW 39 54 21 29 1018.4 1011.4 0.0
03/06:30am 8.7 0.4 2.1 63 3.1 NW 35 52 19 28 1018.2 1011.1 0.0
03/06:22am 8.5 0.6 2.1 64 3.0 NW 33 52 18 28 1018.0 1011.0 0.0
03/06:00am 8.8 -0.3 1.9 62 3.2 NW 39 52 21 28 1017.7 1010.6 0.0
03/05:30am 8.4 -0.3 2.0 64 3.0 NW 37 50 20 27 1017.4 1010.4 0.0
03/05:00am 8.3 0.0 1.9 64 3.0 NW 35 48 19 26 1017.2 1010.1 0.0
03/04:30am 8.8 -0.3 1.9 62 3.2 NW 39 50 21 27 1017.2 1010.1 0.0
03/04:00am 8.7 -0.7 2.1 63 3.1 NW 41 50 22 27 1017.3 1010.3 0.0
03/03:30am 8.9 -0.2 2.0 62 3.2 NW 39 52 21 28 1017.4 1010.4 0.0
03/03:00am 9.0 -0.1 2.1 62 3.3 NW 39 52 21 28 1017.8 1010.8 0.0
03/02:30am 9.2 0.5 2.1 61 3.4 NW 37 48 20 26 1018.2 1011.1 0.0
03/02:00am 9.3 -0.2 1.9 60 3.5 NW 41 52 22 28 1018.3 1011.3 0.0
03/01:30am 9.4 0.3 2.0 60 3.5 NW 39 48 21 26 1018.8 1011.8 0.0
03/01:00am 9.7 0.3 2.1 59 3.6 NW 41 56 22 30 1018.8 1011.8 0.0
03/12:30am 9.5 0.8 1.9 59 3.6 NW 37 59 20 32 1018.8 1011.8 0.0
03/12:00am 9.8 0.4 2.2 59 3.6 NW 41 59 22 32 1018.7 1011.6 0.0
 
Date/Time
EDT
Temp
°C
App
Temp
°C
Dew
Point
°C
Rel
Hum
%
Delta-T
°C
Wind Press
QNH
hPa
Press
MSL
hPa
Rain since
9am
mm
Dir  Spd
km/h
Gust
km/h
Spd
kts
Gust
kts
02/11:47pm 9.8 0.7 1.9 58 3.7 NW 39 57 21 31 1018.7 1011.6 0.0
02/11:30pm 9.6 0.5 2.0 59 3.6 NW 39 54 21 29 1018.8 1011.8 0.0
02/11:00pm 9.8 0.8 2.2 59 3.6 NW 39 54 21 29 1018.7 1011.6 0.0
02/10:30pm 10.2 1.1 2.1 57 3.9 NW 39 57 21 31 1018.5 1011.5 0.0
02/10:29pm 10.2 1.1 2.1 57 3.9 NW 39 57 21 31 1018.7 1011.6 0.0
02/10:00pm 10.1 1.5 2.5 59 3.6 NW 37 52 20 28 1018.9 1011.9 0.0
02/09:54pm 10.3 2.4 2.4 58 3.8 NW 33 52 18 28 1018.9 1011.9 0.0
02/09:30pm 10.0 1.7 1.9 57 3.8 NW 35 50 19 27 1019.3 1012.3 0.0
02/09:00pm 10.7 1.6 2.0 55 4.2 NW 39 52 21 28 1018.7 1011.6 0.0
02/08:30pm 10.8 2.2 2.4 56 4.0 NW 37 46 20 25 1018.4 1011.4 0.0
02/08:00pm 11.1 2.9 2.9 57 4.0 NW 35 46 19 25 1018.3 1011.3 0.0
02/07:34pm 11.4 2.8 2.7 55 4.2 NW 37 56 20 30 1018.5 1011.5 0.0
02/07:30pm 11.5 2.5 2.5 54 4.4 NW 39 54 21 29 1018.3 1011.3 0.0
02/07:00pm 12.0 3.4 2.7 53 4.6 NW 37 57 20 31 1018.2 1011.1 0.0
02/06:30pm 12.2 2.8 2.6 52 4.7 NW 41 63 22 34 1017.7 1010.6 0.0
02/06:14pm 12.8 3.5 3.2 52 4.8 NW 41 59 22 32 1017.7 1010.6 0.0
02/06:00pm 12.6 3.3 3.0 52 4.7 NW 41 57 22 31 1017.7 1010.6 0.0
02/05:49pm 12.9 3.2 2.7 50 5.0 NW 43 72 23 39 1017.2 1010.1 0.0
02/05:30pm 13.1 3.7 2.6 49 5.2 WNW 41 57 22 31 1017.4 1010.4 0.0
02/05:00pm 13.8 4.4 2.4 46 5.6 NW 41 65 22 35 1017.2 1010.1 0.0
02/04:30pm 14.0 3.5 1.6 43 6.0 WNW 46 69 25 37 1017.2 1010.1 0.0
02/04:00pm 14.2 4.5 0.8 40 6.4 WNW 41 67 22 36 1017.0 1009.9 0.0
02/03:30pm 14.5 4.5 0.7 39 6.6 WNW 43 67 23 36 1017.1 1010.0 0.0
02/03:01pm 13.6 3.1 1.6 44 5.8 NW 46 65 25 35 1016.7 1009.6 0.0
02/03:00pm 14.2 4.2 2.1 44 5.9 NW 44 59 24 32 1017.2 1010.1 0.0
02/02:32pm 14.2 3.7 1.2 41 6.3 NW 46 72 25 39 1016.8 1009.7 0.0
02/02:30pm 14.2 3.9 2.5 45 5.8 NW 46 59 25 32 1017.0 1009.9 0.0
02/02:00pm 13.4 2.5 3.5 51 5.0 NW 50 69 27 37 1016.5 1009.4 0.0
02/01:30pm 13.5 4.0 4.1 53 4.8 NW 43 65 23 35 1016.6 1009.5 0.0
02/01:00pm 12.6 2.3 2.5 50 4.9 WNW 46 69 25 37 1016.2 1009.1 0.0
02/12:30pm 13.4 3.3 3.8 52 4.9 NW 46 65 25 35 1016.1 1009.0 0.0
02/12:00pm 13.4 2.9 1.4 44 5.8 NW 46 69 25 37 1015.5 1008.4 0.0
02/11:30am 12.2 0.0 0.3 44 5.5 NNW 54 74 29 40 1014.4 1007.2 0.0
02/11:01am 11.3 -1.4 0.7 48 4.9 NNW 57 76 31 41 1014.4 1007.2 0.0
02/11:00am 11.4 -1.3 0.5 47 5.1 NNW 57 74 31 40 1014.4 1007.2 0.0
02/10:30am 11.6 -0.2 0.4 46 5.2 NW 52 72 28 39 1014.4 1007.2 0.0
02/10:00am 12.0 0.7 1.1 47 5.2 NW 50 70 27 38 - - 0.0
02/09:30am 12.0 0.1 -0.2 43 5.6 NW 52 70 28 38 - - 0.0

Other Formats:

Comma delimited format used in spreadsheet applications
http://www.bom.gov.au/fwo/IDN60801/IDN60801.95909.axf

JavaScript Object Notation format (JSON) in row-major order
http://www.bom.gov.au/fwo/IDN60801/IDN60801.95909.json